Portada
METAR-TAF:

METAR-TAF

Aeroports :

Odiham, Anglaterra

latitud: 51-14N, longitud: 000-57W, altitud: 123 m

Observació

L'informe es va fer fa 47 minuts, a les 23:50 UTC
Vent 5 kt del Oest/Nord-Oest
Temperatura 6°C
Humitat 70%
Pressió 1019 hPa
Visibilitat 10 km o més
Cel cobert a una alçada de 4400 ft

METAR: EGVO 012350Z 29005KT 9999 OVC044 06/01 Q1019 RMK BLU

Hora: 01:37 (00:37 UTC)

Pronòstic

L'informe es va fer fa 1 hora i 43 minuts, a les 22:54 UTC
Pronòstic vàlid del 02 a les 00 UTC al 02 a les 12 UTC
Vent 5 kt del Oest
Visibilitat 10 km o més
Cel ennuvolat a una alçada de 4000 ft
Probabilitat 30% :
Temporalment
l' 02 a les 03 UTC al 02 a les 10 UTC
Cel ennuvolat a una alçada de 1400 ft
Probabilitat 30% :
Temporalment
l' 02 a les 10 UTC al 02 a les 12 UTC
Núvols disperses a una alçada de 2000 ft

TAF: EGVO 012254Z 0200/0212 28005KT 9999 BKN040 PROB30 TEMPO 0203/0210 BKN014 PROB30 TEMPO 0210/0212 SCT020

Observacions i pronòstics meteorològics de més de 4000 aeroports (METAR i TAF).

Les estacions disponibles són els punts grocs i vermells al mapa.

Posi el ratolí al punt desitjat per veure el nom de l'estació.

Feu clic per veure les observacions i els pronòstics meteorològics.

Per canviar el mapa: feu clic els botons verds amb una creu de color negre per apropar; al botó verd amb un guió per allunyar la imatge; o en les fletxes verdes per a mapes adjacents.


METAR-TAF: